createdAt,value
2022-08-15T00:00:45.509Z,53.01
2022-08-15T00:04:01.205Z,53.52
2022-08-15T00:06:38.865Z,53.29
2022-08-15T00:09:20.632Z,53.17
2022-08-15T00:11:53.165Z,53.22
2022-08-15T00:14:31.108Z,53.65
2022-08-15T00:17:04.485Z,53.12
2022-08-15T00:19:41.650Z,53.49
2022-08-15T00:22:18.084Z,53.52
2022-08-15T00:24:51.473Z,53.68
2022-08-15T00:27:23.304Z,53.81
2022-08-15T00:29:55.209Z,54.30
2022-08-15T00:33:01.992Z,54.23
2022-08-15T00:35:38.597Z,54.22
2022-08-15T00:38:21.217Z,53.92
2022-08-15T00:41:22.012Z,54.48
2022-08-15T00:43:55.789Z,54.16
2022-08-15T00:46:23.436Z,54.87
2022-08-15T00:48:51.844Z,54.51
2022-08-15T00:51:44.454Z,54.59
2022-08-15T00:54:57.545Z,54.30
2022-08-15T00:57:59.544Z,54.41
2022-08-15T01:00:33.958Z,54.66
2022-08-15T01:03:14.226Z,54.89
2022-08-15T01:05:51.864Z,54.93
2022-08-15T01:08:27.845Z,55.22
2022-08-15T01:11:05.505Z,55.39
2022-08-15T01:14:02.889Z,55.64
2022-08-15T01:16:34.006Z,55.84
2022-08-15T01:19:53.330Z,55.81
2022-08-15T01:23:11.101Z,56.00
2022-08-15T01:26:42.385Z,55.75
2022-08-15T01:28:45.357Z,55.92
2022-08-15T01:31:19.444Z,56.05
2022-08-15T01:34:00.579Z,56.13
2022-08-15T01:36:32.330Z,55.65
2022-08-15T01:39:34.673Z,56.25
2022-08-15T01:42:11.250Z,55.88
2022-08-15T01:45:00.097Z,55.57
2022-08-15T01:47:43.147Z,55.59
2022-08-15T01:50:29.490Z,55.57
2022-08-15T01:53:16.301Z,55.57
2022-08-15T01:55:59.681Z,55.94
2022-08-15T01:58:31.410Z,55.29
2022-08-15T02:01:19.419Z,55.44
2022-08-15T02:04:03.210Z,55.55
2022-08-15T02:06:36.702Z,55.73
2022-08-15T02:09:37.630Z,55.96
2022-08-15T02:13:04.441Z,56.14
2022-08-15T02:15:01.164Z,55.75
2022-08-15T02:17:31.563Z,55.70
2022-08-15T02:20:01.648Z,56.26
2022-08-15T02:22:48.703Z,56.60
2022-08-15T02:25:23.065Z,56.21
2022-08-15T02:27:54.654Z,56.16
2022-08-15T02:30:31.687Z,56.57
2022-08-15T02:33:05.430Z,56.57
2022-08-15T02:35:38.927Z,56.96
2022-08-15T02:38:18.882Z,56.75
2022-08-15T02:40:51.428Z,56.89
2022-08-15T02:43:21.419Z,56.89
2022-08-15T02:45:55.812Z,56.94
2022-08-15T02:48:26.944Z,56.50
2022-08-15T02:50:56.463Z,56.92
2022-08-15T02:53:26.843Z,56.83
2022-08-15T02:55:54.701Z,56.88
2022-08-15T02:58:29.811Z,57.20
2022-08-15T03:00:58.008Z,57.30
2022-08-15T03:03:39.228Z,57.43
2022-08-15T03:06:16.544Z,57.22
2022-08-15T03:09:02.473Z,57.37
2022-08-15T03:11:52.541Z,57.52
2022-08-15T03:14:34.359Z,57.13
2022-08-15T03:17:06.806Z,57.13
2022-08-15T03:19:39.521Z,57.40
2022-08-15T03:22:09.578Z,57.16
2022-08-15T03:24:41.496Z,57.23
2022-08-15T03:27:10.349Z,57.75
2022-08-15T03:29:52.102Z,57.04
2022-08-15T03:32:32.508Z,57.56
2022-08-15T03:35:09.170Z,57.16
2022-08-15T03:37:43.167Z,57.36
2022-08-15T03:40:13.403Z,57.11
2022-08-15T03:43:05.350Z,57.54
2022-08-15T03:45:46.827Z,57.57
2022-08-15T03:48:22.568Z,57.38
2022-08-15T03:50:57.423Z,57.09
2022-08-15T03:53:32.454Z,57.48
2022-08-15T03:56:02.518Z,57.77
2022-08-15T03:58:36.285Z,57.56
2022-08-15T04:01:13.156Z,57.57
2022-08-15T04:03:42.574Z,57.40
2022-08-15T04:06:16.885Z,57.55
2022-08-15T04:09:12.437Z,57.50
2022-08-15T04:11:46.358Z,57.51
2022-08-15T04:14:33.463Z,57.78
2022-08-15T04:17:13.942Z,57.80
2022-08-15T04:19:55.946Z,57.90
2022-08-15T04:22:39.436Z,57.83
2022-08-15T04:25:38.717Z,58.19
2022-08-15T04:28:28.645Z,58.09
2022-08-15T04:31:12.321Z,58.12
2022-08-15T04:34:44.147Z,57.79
2022-08-15T04:36:30.687Z,58.13
2022-08-15T04:39:03.087Z,57.94
2022-08-15T04:41:37.192Z,58.00
2022-08-15T04:44:17.068Z,57.88
2022-08-15T04:46:52.295Z,58.16
2022-08-15T04:49:20.507Z,58.03
2022-08-15T04:51:50.976Z,57.95
2022-08-15T04:54:18.206Z,57.86
2022-08-15T04:56:59.037Z,58.52
2022-08-15T04:59:35.532Z,57.89
2022-08-15T05:02:49.878Z,58.18
2022-08-15T05:05:06.821Z,58.92
2022-08-15T05:07:36.318Z,58.52
2022-08-15T05:10:11.541Z,58.69
2022-08-15T05:12:42.433Z,58.42
2022-08-15T05:15:14.837Z,58.60
2022-08-15T05:17:56.541Z,58.64
2022-08-15T05:20:27.819Z,58.82
2022-08-15T05:23:03.283Z,58.92
2022-08-15T05:25:42.352Z,59.18
2022-08-15T05:28:29.176Z,59.21
2022-08-15T05:31:14.245Z,58.95
2022-08-15T05:33:57.512Z,58.84
2022-08-15T05:36:32.330Z,58.91
2022-08-15T05:39:26.123Z,58.95
2022-08-15T05:42:31.783Z,58.63
2022-08-15T05:45:12.750Z,58.29
2022-08-15T05:48:24.686Z,57.71
2022-08-15T05:51:18.999Z,56.99
2022-08-15T05:54:10.587Z,56.54
2022-08-15T05:57:10.493Z,55.89
2022-08-15T05:59:48.663Z,55.38
2022-08-15T06:02:36.597Z,54.76
2022-08-15T06:05:14.431Z,54.52
2022-08-15T06:07:52.325Z,53.75
2022-08-15T06:10:35.796Z,53.33
2022-08-15T06:13:18.650Z,53.45
2022-08-15T06:16:46.975Z,53.37
2022-08-15T06:19:34.155Z,53.58
2022-08-15T06:22:43.584Z,53.33
2022-08-15T06:25:25.254Z,53.32
2022-08-15T06:28:53.907Z,52.69
2022-08-15T06:31:40.376Z,53.19
2022-08-15T06:34:46.089Z,52.65
2022-08-15T06:37:28.835Z,52.95
2022-08-15T06:40:27.929Z,52.57
2022-08-15T06:42:59.162Z,53.14
2022-08-15T06:45:50.757Z,52.83
2022-08-15T06:48:59.166Z,52.00
2022-08-15T06:51:13.006Z,52.28
2022-08-15T06:53:54.089Z,52.30
2022-08-15T06:56:46.747Z,52.47
2022-08-15T06:59:56.561Z,52.20
2022-08-15T07:02:45.424Z,51.57
2022-08-15T07:05:31.613Z,51.58
2022-08-15T07:08:11.489Z,51.69
2022-08-15T07:10:58.020Z,52.00
2022-08-15T07:14:29.507Z,51.82
2022-08-15T07:17:18.733Z,52.68
2022-08-15T07:19:52.534Z,52.70
2022-08-15T07:22:37.087Z,52.34
2022-08-15T07:25:17.176Z,52.50
2022-08-15T07:28:04.290Z,52.57
2022-08-15T07:30:59.435Z,52.44
2022-08-15T07:33:43.732Z,52.32
2022-08-15T07:36:30.279Z,52.44
2022-08-15T07:39:49.156Z,52.83
2022-08-15T07:42:28.451Z,53.07
2022-08-15T07:45:28.048Z,53.25
2022-08-15T07:48:07.334Z,52.15
2022-08-15T07:50:45.053Z,52.24
2022-08-15T07:53:22.841Z,52.70
2022-08-15T07:56:40.509Z,52.41
2022-08-15T07:59:25.792Z,52.76
2022-08-15T08:02:37.079Z,52.36
2022-08-15T08:05:10.094Z,52.40
2022-08-15T08:07:51.432Z,52.72
2022-08-15T08:10:39.353Z,53.24
2022-08-15T08:13:53.197Z,53.10
2022-08-15T08:16:31.845Z,52.67
2022-08-15T08:19:27.459Z,52.64
2022-08-15T08:22:25.237Z,53.60
2022-08-15T08:25:47.374Z,52.85
2022-08-15T08:28:29.257Z,53.45
2022-08-15T08:31:28.902Z,53.06
2022-08-15T08:34:38.788Z,53.15
2022-08-15T08:37:59.349Z,53.45
2022-08-15T08:41:14.715Z,53.99
2022-08-15T08:44:34.607Z,54.22
2022-08-15T08:47:22.223Z,53.42
2022-08-15T08:50:44.800Z,54.26
2022-08-15T08:53:56.535Z,53.50
2022-08-15T08:56:41.026Z,53.27
2022-08-15T08:59:25.630Z,53.67
2022-08-15T09:02:29.623Z,53.84
2022-08-15T09:05:14.501Z,53.59
2022-08-15T09:07:52.073Z,53.38
2022-08-15T09:10:30.870Z,53.20
2022-08-15T09:13:19.566Z,51.87
2022-08-15T09:15:54.628Z,51.48
2022-08-15T09:19:21.103Z,51.10
2022-08-15T09:21:48.569Z,50.11
2022-08-15T09:24:37.301Z,49.60
2022-08-15T09:27:54.977Z,47.90
2022-08-15T09:30:45.727Z,46.00
2022-08-15T09:33:55.248Z,45.50
2022-08-15T09:36:47.021Z,45.03
2022-08-15T09:39:46.903Z,45.79
2022-08-15T09:42:35.929Z,46.16
2022-08-15T09:45:44.928Z,45.97
2022-08-15T09:48:46.825Z,46.42
2022-08-15T09:51:21.285Z,45.99
2022-08-15T09:54:28.697Z,45.46
2022-08-15T09:57:44.439Z,45.52
2022-08-15T10:00:20.322Z,44.54
2022-08-15T10:02:54.253Z,45.14
2022-08-15T10:05:46.629Z,44.89
2022-08-15T10:08:28.942Z,44.98
2022-08-15T10:11:15.949Z,44.46
2022-08-15T10:13:47.722Z,44.23
2022-08-15T10:16:43.001Z,44.53
2022-08-15T10:19:32.631Z,44.65
2022-08-15T10:22:23.533Z,44.35
2022-08-15T10:25:37.905Z,45.09
2022-08-15T10:28:36.715Z,45.49
2022-08-15T10:31:02.393Z,45.58
2022-08-15T10:33:35.447Z,44.42
2022-08-15T10:36:20.666Z,44.48
2022-08-15T10:39:32.629Z,43.99
2022-08-15T10:42:22.111Z,43.80
2022-08-15T10:45:09.834Z,44.54
2022-08-15T10:48:05.059Z,43.84
2022-08-15T10:51:12.041Z,43.27
2022-08-15T10:53:58.655Z,43.71
2022-08-15T10:57:04.948Z,44.17
2022-08-15T10:59:22.737Z,43.64
2022-08-15T11:01:51.575Z,43.11
2022-08-15T11:04:48.930Z,43.25
2022-08-15T11:07:29.932Z,43.08
2022-08-15T11:10:04.145Z,43.42
2022-08-15T11:12:41.719Z,42.87
2022-08-15T11:15:23.195Z,42.54
2022-08-15T11:18:21.684Z,42.44
2022-08-15T11:20:57.081Z,42.92
2022-08-15T11:26:36.800Z,41.40
2022-08-15T11:29:16.827Z,41.86
2022-08-15T11:32:00.804Z,41.11
2022-08-15T11:34:43.942Z,40.77
2022-08-15T11:37:18.271Z,41.07
2022-08-15T11:40:26.669Z,40.67
2022-08-15T11:42:58.466Z,40.81
2022-08-15T11:45:49.426Z,39.87
2022-08-15T11:48:40.751Z,40.05
2022-08-15T11:51:24.930Z,40.29
2022-08-15T11:54:34.383Z,39.03
2022-08-15T11:57:17.343Z,40.33
2022-08-15T12:00:52.036Z,40.20
2022-08-15T12:04:42.190Z,39.55
2022-08-15T12:06:34.761Z,38.98
2022-08-15T12:09:42.478Z,38.03
2022-08-15T12:12:33.494Z,38.21
2022-08-15T12:15:41.830Z,37.75
2022-08-15T12:18:32.317Z,37.71
2022-08-15T12:21:13.819Z,38.19
2022-08-15T12:24:15.635Z,37.44
2022-08-15T12:26:48.356Z,35.90
2022-08-15T12:29:35.139Z,36.33
2022-08-15T12:32:35.988Z,37.28
2022-08-15T12:34:55.612Z,37.00
2022-08-15T12:37:39.020Z,36.64
2022-08-15T12:40:56.859Z,36.56
2022-08-15T12:42:59.971Z,36.01
2022-08-15T12:45:36.181Z,36.57
2022-08-15T12:48:35.961Z,36.86
2022-08-15T12:51:05.983Z,36.84
2022-08-15T12:53:33.460Z,36.91
2022-08-15T12:56:00.983Z,37.11
2022-08-15T12:58:29.092Z,36.78
2022-08-15T13:01:03.661Z,36.56
2022-08-15T13:04:01.395Z,36.95
2022-08-15T13:06:56.015Z,36.76
2022-08-15T13:09:28.743Z,37.00
2022-08-15T13:11:56.834Z,36.24
2022-08-15T13:14:25.099Z,36.36
2022-08-15T13:17:09.470Z,36.42
2022-08-15T13:20:05.007Z,36.45
2022-08-15T13:22:52.062Z,36.11
2022-08-15T13:25:23.107Z,36.54
2022-08-15T13:27:51.250Z,36.29
2022-08-15T13:30:22.526Z,35.59
2022-08-15T13:33:03.130Z,35.47
2022-08-15T13:35:30.933Z,35.30
2022-08-15T13:38:04.955Z,35.02
2022-08-15T13:40:34.676Z,34.42
2022-08-15T13:43:11.754Z,34.96
2022-08-15T13:45:56.942Z,35.09
2022-08-15T13:48:38.585Z,35.16
2022-08-15T13:51:12.721Z,34.73
2022-08-15T13:56:33.862Z,34.57
2022-08-15T13:59:12.369Z,34.39
2022-08-15T14:01:47.542Z,33.98
2022-08-15T14:04:29.942Z,33.94
2022-08-15T14:06:57.547Z,34.02
2022-08-15T14:10:06.089Z,33.20
2022-08-15T14:12:15.729Z,33.64
2022-08-15T14:14:46.807Z,34.16
2022-08-15T14:17:15.397Z,34.50
2022-08-15T14:20:02.334Z,33.85
2022-08-15T14:22:32.668Z,33.58
2022-08-15T14:27:50.075Z,34.43
2022-08-15T14:30:19.936Z,34.00
2022-08-15T14:32:51.571Z,33.90
2022-08-15T14:35:24.345Z,33.98
2022-08-15T14:37:54.533Z,32.98
2022-08-15T14:40:42.869Z,33.16
2022-08-15T14:43:18.095Z,33.29
2022-08-15T14:46:31.590Z,33.90
2022-08-15T14:48:50.366Z,32.96
2022-08-15T14:52:12.285Z,32.79
2022-08-15T14:54:44.242Z,33.15
2022-08-15T14:57:10.274Z,32.64
2022-08-15T14:59:56.577Z,32.20
2022-08-15T15:02:28.622Z,32.54
2022-08-15T15:04:58.994Z,32.55
2022-08-15T15:07:57.626Z,32.08
2022-08-15T15:10:24.781Z,32.60
2022-08-15T15:12:59.096Z,32.94
2022-08-15T15:15:42.187Z,32.48
2022-08-15T15:18:33.936Z,32.90
2022-08-15T15:21:02.623Z,33.06
2022-08-15T15:23:29.964Z,33.11
2022-08-15T15:25:57.144Z,33.12
2022-08-15T15:28:41.337Z,33.73
2022-08-15T15:31:13.286Z,33.97
2022-08-15T15:33:44.205Z,34.05
2022-08-15T15:36:27.529Z,33.72
2022-08-15T15:39:06.100Z,33.47
2022-08-15T15:41:47.247Z,33.90
2022-08-15T15:44:25.746Z,34.09
2022-08-15T15:47:01.755Z,33.85
2022-08-15T15:49:40.092Z,33.88
2022-08-15T15:52:13.877Z,33.80
2022-08-15T15:54:52.646Z,33.90
2022-08-15T15:58:00.847Z,34.15
2022-08-15T16:00:28.106Z,34.41
2022-08-15T16:03:01.994Z,34.17
2022-08-15T16:06:02.984Z,33.70
2022-08-15T16:08:36.591Z,34.17
2022-08-15T16:11:26.028Z,34.02
2022-08-15T16:14:21.203Z,34.29
2022-08-15T16:17:09.411Z,33.85
2022-08-15T16:20:06.143Z,34.18
2022-08-15T16:23:01.202Z,34.17
2022-08-15T16:25:42.616Z,34.70
2022-08-15T16:28:22.325Z,34.72
2022-08-15T16:31:18.531Z,34.25
2022-08-15T16:34:15.903Z,34.55
2022-08-15T16:36:54.704Z,34.41
2022-08-15T16:39:32.332Z,34.16
2022-08-15T16:42:48.690Z,34.04
2022-08-15T16:45:21.852Z,34.41
2022-08-15T16:48:13.381Z,34.57
2022-08-15T16:51:11.939Z,35.42
2022-08-15T16:54:33.751Z,34.66
2022-08-15T16:57:16.587Z,35.19
2022-08-15T17:00:18.645Z,34.88
2022-08-15T17:03:30.581Z,35.43
2022-08-15T17:06:09.179Z,36.30
2022-08-15T17:08:50.288Z,36.04
2022-08-15T17:11:57.712Z,39.24
2022-08-15T17:15:16.701Z,44.52
2022-08-15T17:18:24.931Z,46.94
2022-08-15T17:22:00.738Z,48.59
2022-08-15T17:24:59.381Z,51.19
2022-08-15T17:28:33.961Z,52.88
2022-08-15T17:30:58.581Z,54.21
2022-08-15T17:33:45.375Z,53.99
2022-08-15T17:36:17.923Z,54.68
2022-08-15T17:39:03.680Z,53.79
2022-08-15T17:41:41.260Z,54.57
2022-08-15T17:44:56.725Z,54.99
2022-08-15T17:47:16.044Z,55.29
2022-08-15T17:49:58.392Z,55.94
2022-08-15T17:52:35.549Z,56.29
2022-08-15T17:55:15.268Z,57.03
2022-08-15T17:58:01.578Z,57.50
2022-08-15T18:00:38.518Z,57.82
2022-08-15T18:03:12.845Z,58.41
2022-08-15T18:06:04.268Z,58.68
2022-08-15T18:08:54.645Z,59.01
2022-08-15T18:11:37.666Z,59.15
2022-08-15T18:14:38.951Z,60.08
2022-08-15T18:17:07.188Z,60.36
2022-08-15T18:19:37.261Z,60.52
2022-08-15T18:22:22.446Z,60.70
2022-08-15T18:24:59.937Z,60.93
2022-08-15T18:27:55.795Z,60.75
2022-08-15T18:30:27.068Z,61.22
2022-08-15T18:33:03.636Z,61.20
2022-08-15T18:35:36.248Z,60.79
2022-08-15T18:38:17.344Z,60.21
2022-08-15T18:41:07.648Z,59.81
2022-08-15T18:43:55.234Z,60.00
2022-08-15T18:46:28.729Z,60.13
2022-08-15T18:49:01.950Z,60.47
2022-08-15T18:51:40.111Z,60.33
2022-08-15T18:54:48.607Z,60.00
2022-08-15T18:57:46.416Z,59.89
2022-08-15T19:00:20.237Z,60.15
2022-08-15T19:03:00.671Z,60.96
2022-08-15T19:05:43.236Z,60.69
2022-08-15T19:08:26.552Z,60.55
2022-08-15T19:10:58.112Z,61.04
2022-08-15T19:13:43.492Z,60.62
2022-08-15T19:16:30.017Z,61.29
2022-08-15T19:19:11.606Z,61.92
2022-08-15T19:21:38.716Z,62.11
2022-08-15T19:24:08.371Z,62.01
2022-08-15T19:26:49.133Z,61.58
2022-08-15T19:29:46.518Z,57.96
2022-08-15T19:32:38.945Z,58.27
2022-08-15T19:35:23.924Z,58.40
2022-08-15T19:38:14.085Z,57.93
2022-08-15T19:40:52.671Z,57.66
2022-08-15T19:43:43.090Z,57.67
2022-08-15T19:46:45.592Z,57.80
2022-08-15T19:50:06.284Z,58.01
2022-08-15T19:53:20.462Z,58.95
2022-08-15T19:56:02.851Z,58.70
2022-08-15T19:58:57.160Z,58.71
2022-08-15T20:01:48.586Z,59.32
2022-08-15T20:04:54.364Z,58.77
2022-08-15T20:07:37.879Z,59.13
2022-08-15T20:11:02.550Z,59.40
2022-08-15T20:14:02.308Z,59.64
2022-08-15T20:17:29.247Z,59.93
2022-08-15T20:20:30.805Z,60.16
2022-08-15T20:23:17.783Z,58.70
2022-08-15T20:26:00.520Z,57.48
2022-08-15T20:28:38.732Z,57.62
2022-08-15T20:31:58.157Z,56.60
2022-08-15T20:34:32.025Z,56.98
2022-08-15T20:37:05.865Z,56.94
2022-08-15T20:39:43.310Z,56.92
2022-08-15T20:42:27.080Z,56.71
2022-08-15T20:45:13.149Z,57.29
2022-08-15T20:48:40.847Z,56.18
2022-08-15T20:50:40.338Z,56.12
2022-08-15T20:53:08.776Z,56.15
2022-08-15T20:55:44.499Z,55.38
2022-08-15T20:58:21.217Z,55.45
2022-08-15T21:01:14.629Z,55.66
2022-08-15T21:04:01.435Z,55.84
2022-08-15T21:06:49.638Z,56.05
2022-08-15T21:09:46.191Z,55.57
2022-08-15T21:12:25.781Z,55.98
2022-08-15T21:16:04.239Z,56.30
2022-08-15T21:18:44.137Z,55.90
2022-08-15T21:21:24.215Z,56.05
2022-08-15T21:24:02.074Z,56.21
2022-08-15T21:26:40.771Z,56.87
2022-08-15T21:29:28.612Z,57.50
2022-08-15T21:31:58.765Z,57.38
2022-08-15T21:34:32.348Z,56.78
2022-08-15T21:37:12.596Z,56.83
2022-08-15T21:40:05.043Z,57.46
2022-08-15T21:42:46.032Z,57.97
2022-08-15T21:45:22.110Z,57.66
2022-08-15T21:48:35.246Z,57.40
2022-08-15T21:51:35.846Z,57.74
2022-08-15T21:54:25.513Z,58.16
2022-08-15T21:57:06.963Z,57.94
2022-08-15T22:00:21.488Z,57.80
2022-08-15T22:02:59.925Z,57.53
2022-08-15T22:05:36.276Z,58.18
2022-08-15T22:08:16.760Z,58.34
2022-08-15T22:10:53.370Z,58.47
2022-08-15T22:13:23.838Z,57.75
2022-08-15T22:15:53.330Z,57.61
2022-08-15T22:18:28.690Z,58.22
2022-08-15T22:21:11.085Z,57.36
2022-08-15T22:23:45.537Z,57.87
2022-08-15T22:26:36.578Z,58.21
2022-08-15T22:29:31.767Z,58.35
2022-08-15T22:32:30.645Z,57.69
2022-08-15T22:34:57.635Z,58.27
2022-08-15T22:37:33.630Z,58.43
2022-08-15T22:40:10.089Z,58.53
2022-08-15T22:42:43.166Z,58.35
2022-08-15T22:45:46.695Z,58.29
2022-08-15T22:48:24.442Z,58.89
2022-08-15T22:51:09.097Z,58.86
2022-08-15T22:53:38.925Z,59.28
2022-08-15T22:56:50.255Z,58.85
2022-08-15T22:58:57.950Z,58.86
2022-08-15T23:01:38.903Z,59.80
2022-08-15T23:04:41.902Z,59.73
2022-08-15T23:07:57.024Z,60.72
2022-08-15T23:10:42.307Z,60.44
2022-08-15T23:13:21.727Z,60.62
2022-08-15T23:16:05.221Z,60.76
2022-08-15T23:19:01.791Z,60.93
2022-08-15T23:21:29.898Z,60.84
2022-08-15T23:24:01.106Z,61.35
2022-08-15T23:26:32.693Z,61.34
2022-08-15T23:29:07.401Z,61.19
2022-08-15T23:31:49.042Z,61.62
2022-08-15T23:34:21.532Z,61.79
2022-08-15T23:37:14.594Z,61.58
2022-08-15T23:40:04.162Z,61.84
2022-08-15T23:42:38.546Z,61.37
2022-08-15T23:45:13.960Z,61.35
2022-08-15T23:47:42.518Z,61.73
2022-08-15T23:50:11.173Z,61.58
2022-08-15T23:52:39.698Z,61.30
2022-08-15T23:55:12.409Z,61.79
2022-08-15T23:57:43.324Z,61.69
